Time;durP1;ratioP1;P1;durP2;ratioP2;P2;SDS_P1;SDS_P2;PMS_P1;PMS_P2;Temp;Humidity;BMP_temperature;BMP_pressure;BME280_temperature;BME280_humidity;BME280_pressure;Samples;Min_cycle;Max_cycle;Signal;HPM_P1;HPM_P2
2023/11/02 00:03:28;;;;;;;7.77;1.70;;;;;10.40;98388.00;;;;10314978;28;20854;-69
2023/11/02 00:08:33;;;;;;;4.47;1.60;;;;;10.40;98371.00;;;;10331120;28;20650;-71
2023/11/02 00:13:35;;;;;;;8.43;1.83;;;;;10.40;98359.00;;;;10323649;28;20326;-70
2023/11/02 00:18:36;;;;;;;6.90;1.77;;;;;10.40;98340.00;;;;10307743;28;20307;-71
2023/11/02 00:23:39;;;;;;;9.03;2.00;;;;;10.40;98334.00;;;;10315821;28;20529;-70
2023/11/02 00:28:40;;;;;;;7.03;1.63;;;;;10.40;98309.00;;;;10312935;28;20231;-71
2023/11/02 00:33:41;;;;;;;3.57;1.20;;;;;10.40;98298.00;;;;10314669;28;20234;-70
2023/11/02 00:38:46;;;;;;;7.03;1.60;;;;;10.50;98265.00;;;;10309934;28;20223;-71
2023/11/02 00:43:48;;;;;;;5.23;1.33;;;;;10.50;98254.00;;;;10337844;28;20231;-70
2023/11/02 00:48:49;;;;;;;9.23;2.10;;;;;10.50;98235.00;;;;10318159;28;20281;-70
2023/11/02 00:53:53;;;;;;;5.70;1.60;;;;;10.50;98217.00;;;;10314332;28;20230;-71
2023/11/02 00:58:54;;;;;;;11.90;2.10;;;;;10.50;98219.00;;;;10312654;28;20282;-72
2023/11/02 01:04:02;;;;;;;6.53;1.70;;;;;10.50;98192.00;;;;10325074;28;20231;-70
2023/11/02 01:09:36;;;;;;;7.07;1.73;;;;;10.50;98162.00;;;;10321262;28;20231;-70
2023/11/02 01:14:44;;;;;;;7.17;1.60;;;;;10.40;98152.00;;;;10313116;28;20235;-71
2023/11/02 01:19:56;;;;;;;8.50;1.83;;;;;10.40;98120.00;;;;10313057;28;20286;-71
2023/11/02 01:25:01;;;;;;;7.90;1.83;;;;;10.30;98074.00;;;;10304540;28;20666;-72
2023/11/02 01:30:09;;;;;;;10.37;1.63;;;;;10.30;98027.00;;;;10310222;28;20666;-73
2023/11/02 01:35:30;;;;;;;11.63;1.70;;;;;10.30;97997.00;;;;10329943;28;20224;-72
2023/11/02 01:40:53;;;;;;;11.13;2.10;;;;;10.40;97967.00;;;;10318729;28;20270;-72
2023/11/02 01:45:57;;;;;;;9.93;1.77;;;;;10.40;97936.00;;;;10312407;28;20290;-72
2023/11/02 01:51:02;;;;;;;10.83;1.97;;;;;10.50;97923.00;;;;10319414;28;20306;-72
2023/11/02 01:56:41;;;;;;;9.40;1.73;;;;;10.60;97902.00;;;;10313298;28;20228;-73
2023/11/02 02:01:56;;;;;;;7.03;1.23;;;;;10.60;97866.00;;;;10318207;28;21050;-72
2023/11/02 02:07:16;;;;;;;7.03;1.97;;;;;10.70;97800.00;;;;10343516;28;20892;-72
2023/11/02 02:13:06;;;;;;;4.40;1.47;;;;;10.70;97780.00;;;;10323928;28;20215;-72
2023/11/02 02:18:25;;;;;;;3.97;1.10;;;;;10.80;97737.00;;;;10304680;28;20609;-71
2023/11/02 02:23:58;;;;;;;5.60;1.80;;;;;10.80;97751.00;;;;10320184;28;20242;-72
2023/11/02 02:29:07;;;;;;;3.50;1.20;;;;;10.80;97705.00;;;;10317595;28;20886;-71
2023/11/02 02:34:33;;;;;;;3.33;1.08;;;;;10.80;97616.00;;;;10312896;28;20228;-72
2023/11/02 02:39:41;;;;;;;3.45;1.05;;;;;10.80;97530.00;;;;10319219;28;20310;-71
2023/11/02 02:44:46;;;;;;;5.05;1.48;;;;;10.70;97462.00;;;;10307517;28;20327;-72
2023/11/02 02:49:51;;;;;;;5.25;1.45;;;;;10.70;97490.00;;;;10321710;28;20944;-73
2023/11/02 02:54:53;;;;;;;2.77;0.53;;;;;10.80;97513.00;;;;10317282;28;20227;-71
2023/11/02 02:59:58;;;;;;;3.90;1.20;;;;;10.80;97542.00;;;;10310531;28;20254;-72
2023/11/02 03:04:59;;;;;;;7.87;1.00;;;;;10.80;97526.00;;;;10312334;28;20220;-72
2023/11/02 03:10:02;;;;;;;2.00;0.70;;;;;10.90;97470.00;;;;10315700;28;20270;-72
2023/11/02 03:15:06;;;;;;;5.37;0.67;;;;;10.90;97439.00;;;;10311779;28;20290;-74
2023/11/02 03:20:09;;;;;;;2.60;0.70;;;;;10.90;97378.00;;;;10331820;28;20220;-73
2023/11/02 03:25:26;;;;;;;2.90;0.90;;;;;10.90;97366.00;;;;10292742;28;20228;-74
2023/11/02 03:30:33;;;;;;;6.47;1.40;;;;;10.90;97335.00;;;;10314787;28;20231;-74
2023/11/02 03:35:42;;;;;;;6.38;0.93;;;;;10.90;97339.00;;;;10306137;28;20239;-74
2023/11/02 03:41:13;;;;;;;3.77;1.00;;;;;10.80;97344.00;;;;10323505;28;20219;-73
2023/11/02 03:46:30;;;;;;;1.90;0.90;;;;;10.80;97334.00;;;;10309750;28;20238;-74
2023/11/02 03:52:03;;;;;;;1.73;0.80;;;;;10.90;97333.00;;;;10310793;28;20234;-73
2023/11/02 03:57:43;;;;;;;3.13;0.90;;;;;10.90;97301.00;;;;10314396;28;20228;-73
2023/11/02 04:02:57;;;;;;;6.80;1.00;;;;;11.00;97283.00;;;;10263472;28;20230;-74
2023/11/02 04:08:11;;;;;;;5.57;1.03;;;;;11.00;97270.00;;;;10323414;28;20305;-74
2023/11/02 04:13:29;;;;;;;5.70;0.73;;;;;11.10;97265.00;;;;10334631;28;20807;-73
2023/11/02 04:18:30;;;;;;;2.58;0.77;;;;;11.20;97259.00;;;;10311195;28;20228;-72
2023/11/02 04:23:32;;;;;;;1.10;0.63;;;;;11.30;97253.00;;;;10306038;28;20231;-72
2023/11/02 04:28:33;;;;;;;2.30;0.70;;;;;11.40;97244.00;;;;10276580;28;20219;-72
2023/11/02 04:33:34;;;;;;;4.15;0.95;;;;;11.40;97227.00;;;;10305838;28;20729;-72
2023/11/02 04:38:35;;;;;;;2.30;0.70;;;;;11.40;97219.00;;;;10316099;28;20604;-73
2023/11/02 04:43:36;;;;;;;4.25;0.95;;;;;11.50;97202.00;;;;10308184;28;20315;-72
2023/11/02 04:48:38;;;;;;;1.67;0.80;;;;;11.50;97196.00;;;;10305745;28;20228;-72
2023/11/02 04:53:39;;;;;;;5.38;1.17;;;;;11.50;97169.00;;;;10309339;28;20235;-72
2023/11/02 04:58:40;;;;;;;3.53;0.70;;;;;11.50;97153.00;;;;10337319;28;20767;-72
2023/11/02 05:03:41;;;;;;;2.20;0.70;;;;;11.50;97158.00;;;;10322321;28;20224;-72
2023/11/02 05:08:42;;;;;;;2.30;0.77;;;;;11.40;97121.00;;;;10323799;28;20231;-72
2023/11/02 05:13:43;;;;;;;4.95;0.63;;;;;11.40;97136.00;;;;10322462;28;20328;-72
2023/11/02 05:18:44;;;;;;;3.35;0.60;;;;;11.40;97104.00;;;;10286765;28;20327;-73
2023/11/02 05:23:46;;;;;;;1.77;0.68;;;;;11.40;97080.00;;;;10316704;28;20281;-72
2023/11/02 05:28:47;;;;;;;1.50;0.95;;;;;11.30;97062.00;;;;10309070;28;20226;-72
2023/11/02 05:33:48;;;;;;;2.37;0.67;;;;;11.40;97041.00;;;;10322236;28;20232;-70
2023/11/02 05:38:49;;;;;;;0.93;0.60;;;;;11.50;97027.00;;;;10322816;28;20279;-70
2023/11/02 05:43:50;;;;;;;5.53;0.90;;;;;11.50;97018.00;;;;10313794;28;20784;-69
2023/11/02 05:48:52;;;;;;;4.05;1.02;;;;;11.50;97003.00;;;;10324819;28;20718;-69
2023/11/02 05:53:53;;;;;;;3.70;1.13;;;;;11.50;96982.00;;;;10311174;28;20802;-68
2023/11/02 05:58:56;;;;;;;5.53;1.10;;;;;11.50;96965.00;;;;10312689;28;20223;-70
2023/11/02 06:03:58;;;;;;;3.10;0.82;;;;;11.50;96945.00;;;;10339148;28;20311;-72
2023/11/02 06:09:00;;;;;;;3.67;0.90;;;;;11.60;96930.00;;;;10308917;28;20335;-69
2023/11/02 06:14:02;;;;;;;6.03;1.42;;;;;11.60;96912.00;;;;10316461;28;20302;-70
2023/11/02 06:19:03;;;;;;;2.72;0.95;;;;;11.70;96878.00;;;;10318841;28;20230;-69
2023/11/02 06:24:05;;;;;;;4.47;1.15;;;;;11.80;96889.00;;;;10302651;28;20252;-69
2023/11/02 06:29:06;;;;;;;2.78;0.80;;;;;11.90;96894.00;;;;10316072;28;20681;-71
2023/11/02 06:34:07;;;;;;;4.57;1.15;;;;;11.90;96911.00;;;;10313848;28;20732;-70
2023/11/02 06:39:10;;;;;;;3.10;0.70;;;;;12.00;96910.00;;;;10319253;28;20223;-70
2023/11/02 06:44:12;;;;;;;4.38;1.13;;;;;12.10;96911.00;;;;10316522;28;20231;-73
2023/11/02 06:49:13;;;;;;;6.53;1.30;;;;;12.10;96894.00;;;;10322330;28;20223;-74
2023/11/02 06:54:14;;;;;;;8.35;1.40;;;;;12.10;96900.00;;;;10339932;28;20223;-74
2023/11/02 06:59:15;;;;;;;5.30;1.15;;;;;12.20;96892.00;;;;10320735;28;20227;-73
2023/11/02 07:04:18;;;;;;;4.32;0.88;;;;;12.30;96896.00;;;;10320892;28;20219;-72
2023/11/02 07:09:19;;;;;;;4.32;1.40;;;;;12.40;96868.00;;;;10310189;28;20234;-73
2023/11/02 07:14:20;;;;;;;7.40;1.30;;;;;12.50;96890.00;;;;10314464;28;20231;-73
2023/11/02 07:19:21;;;;;;;4.30;1.40;;;;;12.50;96919.00;;;;10316500;28;20227;-74
2023/11/02 07:24:22;;;;;;;6.03;1.42;;;;;12.60;96872.00;;;;10316995;28;20235;-73
2023/11/02 07:29:23;;;;;;;5.35;1.05;;;;;12.50;96864.00;;;;10294720;28;20375;-73
2023/11/02 07:34:24;;;;;;;6.60;1.35;;;;;12.40;96859.00;;;;10312328;28;20235;-73
2023/11/02 07:39:27;;;;;;;8.95;2.53;;;;;12.30;96840.00;;;;10321807;28;20219;-72
2023/11/02 07:44:29;;;;;;;6.28;1.77;;;;;12.40;96840.00;;;;10307391;28;20918;-73
2023/11/02 07:49:30;;;;;;;4.60;1.30;;;;;12.50;96833.00;;;;10312263;28;20322;-72
2023/11/02 07:54:34;;;;;;;8.20;1.90;;;;;12.60;96836.00;;;;10297701;28;20223;-73
2023/11/02 07:59:37;;;;;;;10.02;1.95;;;;;13.10;96834.00;;;;10307743;28;20227;-73
2023/11/02 08:04:39;;;;;;;8.38;1.48;;;;;13.40;96845.00;;;;10310788;28;20309;-73
2023/11/02 08:09:40;;;;;;;5.30;1.45;;;;;13.30;96833.00;;;;10299529;28;20589;-72
2023/11/02 08:14:42;;;;;;;8.50;1.35;;;;;13.10;96811.00;;;;10307124;28;20250;-73
2023/11/02 08:19:45;;;;;;;7.38;1.02;;;;;13.30;96806.00;;;;10306212;28;20228;-72
2023/11/02 08:24:46;;;;;;;3.95;1.25;;;;;13.40;96805.00;;;;10321570;28;20243;-73
2023/11/02 08:29:47;;;;;;;10.13;1.60;;;;;14.00;96786.00;;;;10327528;28;20243;-73
2023/11/02 08:34:49;;;;;;;5.50;1.15;;;;;14.40;96784.00;;;;10314052;28;20224;-74
2023/11/02 08:39:50;;;;;;;5.95;1.55;;;;;14.20;96776.00;;;;10312946;28;20231;-73
2023/11/02 08:44:51;;;;;;;7.90;1.77;;;;;14.00;96776.00;;;;10312716;28;20223;-74
2023/11/02 08:49:53;;;;;;;7.72;1.60;;;;;14.10;96752.00;;;;10316203;28;20230;-73
2023/11/02 08:54:54;;;;;;;6.43;1.80;;;;;14.30;96760.00;;;;10310753;28;20910;-74
2023/11/02 08:59:57;;;;;;;13.43;2.10;;;;;14.30;96764.00;;;;10311354;28;20231;-73
2023/11/02 09:05:03;;;;;;;9.82;1.80;;;;;14.20;96752.00;;;;10306502;28;20332;-71
2023/11/02 09:10:05;;;;;;;6.25;1.30;;;;;14.20;96745.00;;;;10309110;28;20302;-71
2023/11/02 09:15:08;;;;;;;6.30;1.50;;;;;14.20;96729.00;;;;10316188;28;20282;-70
2023/11/02 09:20:10;;;;;;;8.32;1.83;;;;;14.80;96731.00;;;;10292519;28;20220;-71
2023/11/02 09:25:11;;;;;;;10.23;1.85;;;;;15.10;96733.00;;;;10314251;28;20227;-71
2023/11/02 09:30:12;;;;;;;6.43;1.50;;;;;15.10;96725.00;;;;10320531;28;20840;-71
2023/11/02 09:35:14;;;;;;;11.15;1.70;;;;;15.00;96730.00;;;;10316443;28;20302;-70
2023/11/02 09:40:15;;;;;;;7.85;1.63;;;;;15.30;96728.00;;;;10307128;28;20685;-70
2023/11/02 09:45:17;;;;;;;7.47;1.52;;;;;15.00;96724.00;;;;10313418;28;20220;-70
2023/11/02 09:50:18;;;;;;;8.45;2.05;;;;;14.60;96747.00;;;;10315156;28;20232;-69
2023/11/02 09:55:20;;;;;;;7.65;1.38;;;;;14.70;96707.00;;;;10307596;28;20227;-70
2023/11/02 10:00:21;;;;;;;6.82;1.60;;;;;14.80;96726.00;;;;10313391;28;20306;-70
2023/11/02 10:05:26;;;;;;;10.45;2.65;;;;;15.20;96712.00;;;;10322305;28;20350;-70
2023/11/02 10:10:31;;;;;;;7.40;1.88;;;;;15.30;96706.00;;;;10300873;28;20255;-71
2023/11/02 10:15:33;;;;;;;6.47;1.65;;;;;15.30;96697.00;;;;10299140;28;20212;-69
2023/11/02 10:20:36;;;;;;;8.35;1.60;;;;;15.30;96695.00;;;;10298936;28;20255;-69
2023/11/02 10:25:39;;;;;;;6.47;1.58;;;;;15.50;96684.00;;;;10298395;28;20282;-70
2023/11/02 10:30:41;;;;;;;5.57;1.40;;;;;15.40;96688.00;;;;10292900;28;20243;-70
2023/11/02 10:35:42;;;;;;;7.32;1.35;;;;;15.20;96693.00;;;;10292972;28;20215;-70
2023/11/02 10:40:45;;;;;;;10.10;1.77;;;;;14.80;96716.00;;;;10297417;28;20600;-69
2023/11/02 10:45:49;;;;;;;16.67;1.75;;;;;14.30;96713.00;;;;10295291;28;20220;-70
2023/11/02 10:50:56;;;;;;;6.43;1.70;;;;;14.50;96715.00;;;;10315753;28;20238;-70
2023/11/02 10:56:06;;;;;;;11.75;1.98;;;;;14.90;96716.00;;;;10296592;28;20588;-70
2023/11/02 11:01:09;;;;;;;6.38;1.83;;;;;15.40;96679.00;;;;10296330;28;20220;-70
2023/11/02 11:06:11;;;;;;;6.63;1.88;;;;;16.10;96660.00;;;;10299574;28;20255;-70
2023/11/02 11:11:13;;;;;;;7.22;1.92;;;;;16.00;96674.00;;;;10295051;28;20232;-71
2023/11/02 11:16:16;;;;;;;7.20;1.80;;;;;15.70;96638.00;;;;10303025;28;21263;-72
2023/11/02 11:21:18;;;;;;;6.97;1.70;;;;;15.60;96627.00;;;;10298809;28;20243;-70
2023/11/02 11:26:20;;;;;;;8.45;1.90;;;;;14.90;96626.00;;;;10288607;28;20224;-71
2023/11/02 11:31:49;;;;;;;10.32;2.25;;;;;14.50;96607.00;;;;10292672;28;20377;-70
2023/11/02 11:36:51;;;;;;;12.90;2.15;;;;;14.10;96668.00;;;;10293971;28;20219;-70
2023/11/02 11:41:52;;;;;;;10.18;1.52;;;;;14.00;96660.00;;;;10273012;28;20227;-70
2023/11/02 11:46:59;;;;;;;5.22;1.38;;;;;14.10;96664.00;;;;10291949;28;20262;-71
2023/11/02 11:52:02;;;;;;;13.50;2.72;;;;;13.60;96680.00;;;;10318043;28;20220;-71
2023/11/02 11:57:05;;;;;;;11.75;2.05;;;;;13.60;96694.00;;;;10299323;28;20377;-70
2023/11/02 12:02:32;;;;;;;10.02;1.65;;;;;13.80;96670.00;;;;10303182;28;20212;-70
2023/11/02 12:07:33;;;;;;;7.40;1.60;;;;;13.80;96688.00;;;;10324306;28;20255;-71
2023/11/02 12:12:35;;;;;;;8.23;1.20;;;;;14.20;96670.00;;;;10305513;28;20231;-71
2023/11/02 12:17:55;;;;;;;7.10;1.45;;;;;14.40;96667.00;;;;10316384;28;20224;-71
2023/11/02 12:22:57;;;;;;;3.35;0.82;;;;;14.20;96666.00;;;;10309451;28;20984;-71
2023/11/02 12:27:59;;;;;;;4.97;1.38;;;;;14.20;96680.00;;;;10275899;28;21837;-70
2023/11/02 12:33:01;;;;;;;6.03;1.10;;;;;14.00;96621.00;;;;10309099;28;20219;-73
2023/11/02 12:38:03;;;;;;;5.38;1.00;;;;;13.90;96704.00;;;;10307705;28;20227;-71
2023/11/02 12:43:05;;;;;;;6.20;1.38;;;;;14.00;96683.00;;;;10298399;28;21118;-71
2023/11/02 12:48:07;;;;;;;6.22;1.25;;;;;13.80;96697.00;;;;10304295;28;20242;-71
2023/11/02 12:53:30;;;;;;;9.27;1.50;;;;;13.60;96711.00;;;;10316893;28;20231;-71
2023/11/02 12:58:32;;;;;;;5.60;1.13;;;;;13.50;96731.00;;;;10299645;28;20227;-71
2023/11/02 13:03:33;;;;;;;4.03;0.57;;;;;13.50;96721.00;;;;10306240;28;21066;-72
2023/11/02 13:08:35;;;;;;;6.15;1.42;;;;;13.90;96715.00;;;;10310630;28;21010;-72
2023/11/02 13:13:38;;;;;;;11.27;1.52;;;;;14.00;96734.00;;;;10315276;28;20236;-71
2023/11/02 13:18:47;;;;;;;5.07;1.45;;;;;13.50;96739.00;;;;10303365;28;20220;-72
2023/11/02 13:23:50;;;;;;;2.17;0.88;;;;;13.20;96705.00;;;;10298228;28;20274;-72
2023/11/02 13:28:52;;;;;;;6.18;1.17;;;;;13.20;96770.00;;;;10309021;28;20227;-71
2023/11/02 13:33:53;;;;;;;6.50;1.30;;;;;13.40;96762.00;;;;10310826;28;20207;-72
2023/11/02 13:38:54;;;;;;;3.05;1.02;;;;;13.60;96786.00;;;;10310743;28;20227;-72
2023/11/02 13:43:55;;;;;;;5.88;1.50;;;;;13.80;96794.00;;;;10304453;28;20285;-72
2023/11/02 13:48:56;;;;;;;3.28;0.90;;;;;13.70;96796.00;;;;10305541;28;20230;-72
2023/11/02 13:53:58;;;;;;;2.92;0.68;;;;;13.50;96792.00;;;;10298608;28;20669;-72
2023/11/02 13:58:59;;;;;;;6.57;1.17;;;;;13.10;96815.00;;;;10304175;28;20304;-72
2023/11/02 14:04:01;;;;;;;9.75;1.23;;;;;12.50;96814.00;;;;10305957;28;20728;-72
2023/11/02 14:09:05;;;;;;;2.85;0.90;;;;;12.20;96856.00;;;;10295282;28;20228;-71
2023/11/02 14:14:06;;;;;;;2.63;0.90;;;;;11.70;96875.00;;;;10298776;28;20871;-72
2023/11/02 14:19:09;;;;;;;6.78;1.30;;;;;11.40;96881.00;;;;10302153;28;20230;-72
2023/11/02 14:24:11;;;;;;;2.33;0.98;;;;;11.20;96874.00;;;;10316911;28;20231;-72
2023/11/02 14:29:12;;;;;;;2.57;0.70;;;;;11.00;96874.00;;;;10301028;28;20719;-72
2023/11/02 14:34:13;;;;;;;4.10;1.00;;;;;10.90;96889.00;;;;10301099;28;20234;-72
2023/11/02 14:39:14;;;;;;;3.30;0.60;;;;;10.80;96881.00;;;;10302138;28;20591;-72
2023/11/02 14:44:15;;;;;;;1.50;0.50;;;;;10.60;96892.00;;;;10299758;28;20227;-72
2023/11/02 14:49:16;;;;;;;5.00;0.60;;;;;10.50;96902.00;;;;10300204;28;20750;-72
2023/11/02 14:54:17;;;;;;;2.27;0.77;;;;;10.30;96913.00;;;;10295167;28;20936;-72
2023/11/02 14:59:21;;;;;;;2.03;0.87;;;;;10.10;96919.00;;;;10299686;28;20219;-72
2023/11/02 15:04:24;;;;;;;3.37;0.60;;;;;10.10;96926.00;;;;10303438;28;20226;-73
2023/11/02 15:09:26;;;;;;;3.77;1.00;;;;;10.00;96930.00;;;;10303864;28;20228;-72
2023/11/02 15:14:27;;;;;;;1.57;0.40;;;;;10.00;96932.00;;;;10305686;28;20274;-72
2023/11/02 15:19:30;;;;;;;3.00;0.80;;;;;9.90;96961.00;;;;10305273;28;20250;-73
2023/11/02 15:24:31;;;;;;;3.47;0.70;;;;;9.90;96948.00;;;;10297738;28;20224;-72
2023/11/02 15:29:34;;;;;;;6.13;0.80;;;;;9.80;96940.00;;;;10304452;28;20310;-72
2023/11/02 15:34:35;;;;;;;4.67;1.20;;;;;9.70;96953.00;;;;10309309;28;20227;-72
2023/11/02 15:39:36;;;;;;;3.03;0.80;;;;;9.70;96977.00;;;;10299139;28;20227;-72
2023/11/02 15:44:38;;;;;;;3.73;0.80;;;;;9.70;96949.00;;;;10299062;28;20234;-72
2023/11/02 15:49:39;;;;;;;3.10;1.23;;;;;9.60;96953.00;;;;10303829;28;20227;-72
2023/11/02 15:54:40;;;;;;;4.03;0.90;;;;;9.60;96969.00;;;;10311857;28;20219;-72
2023/11/02 15:59:42;;;;;;;3.43;0.80;;;;;9.70;96981.00;;;;10285532;28;20275;-72
2023/11/02 16:04:43;;;;;;;1.17;0.60;;;;;9.80;96965.00;;;;10301547;28;20225;-73
2023/11/02 16:09:44;;;;;;;1.07;0.50;;;;;9.90;96972.00;;;;10303806;28;20228;-72
2023/11/02 16:14:45;;;;;;;8.40;1.00;;;;;9.90;96974.00;;;;10304664;28;20223;-72
2023/11/02 16:19:46;;;;;;;5.90;1.30;;;;;9.80;96966.00;;;;10296581;28;20227;-71
2023/11/02 16:24:48;;;;;;;5.57;1.00;;;;;9.80;96977.00;;;;10299832;28;20266;-72
2023/11/02 16:29:49;;;;;;;2.77;1.10;;;;;9.70;97004.00;;;;10306942;28;20228;-72
2023/11/02 16:34:50;;;;;;;3.63;1.10;;;;;9.70;97000.00;;;;10303815;28;20254;-73
2023/11/02 16:40:08;;;;;;;3.17;0.80;;;;;9.60;96988.00;;;;10320531;28;20222;-72
2023/11/02 16:45:11;;;;;;;6.17;1.00;;;;;9.60;97000.00;;;;10312142;28;20270;-72
2023/11/02 16:50:16;;;;;;;3.33;0.70;;;;;9.70;97001.00;;;;10315597;28;20254;-72
2023/11/02 16:55:20;;;;;;;3.33;0.70;;;;;9.70;97007.00;;;;10293978;28;20317;-72
2023/11/02 17:00:21;;;;;;;3.10;0.97;;;;;9.90;97003.00;;;;10317191;28;20662;-72
2023/11/02 17:05:22;;;;;;;2.63;0.70;;;;;10.00;97020.00;;;;10314747;28;20255;-72
2023/11/02 17:10:23;;;;;;;3.37;1.10;;;;;10.00;97043.00;;;;10301976;28;20224;-72
2023/11/02 17:15:27;;;;;;;2.27;1.00;;;;;10.10;97050.00;;;;10314021;28;20227;-72
2023/11/02 17:20:28;;;;;;;2.57;0.70;;;;;10.20;97053.00;;;;10307208;28;20247;-72
2023/11/02 17:25:30;;;;;;;0.73;0.43;;;;;10.10;97070.00;;;;10308453;28;21011;-72
2023/11/02 17:30:31;;;;;;;2.27;0.70;;;;;10.20;97073.00;;;;10306959;28;20232;-72
2023/11/02 17:35:33;;;;;;;4.17;0.90;;;;;10.20;97077.00;;;;10296365;28;20249;-72
2023/11/02 17:40:34;;;;;;;3.40;0.87;;;;;10.20;97071.00;;;;10305129;28;20230;-72
2023/11/02 17:45:35;;;;;;;2.90;0.90;;;;;10.10;97091.00;;;;10290604;28;20239;-72
2023/11/02 17:50:40;;;;;;;3.27;0.90;;;;;10.10;97091.00;;;;10305516;28;20231;-72
2023/11/02 17:55:42;;;;;;;5.73;0.63;;;;;10.20;97097.00;;;;10315963;28;20310;-73
2023/11/02 18:00:43;;;;;;;1.63;0.60;;;;;10.20;97109.00;;;;10314174;28;20220;-72
2023/11/02 18:05:44;;;;;;;4.73;1.20;;;;;10.30;97126.00;;;;10312220;28;20223;-72
2023/11/02 18:10:45;;;;;;;3.57;0.90;;;;;10.30;97130.00;;;;10311717;28;20224;-72
2023/11/02 18:15:49;;;;;;;2.47;0.80;;;;;10.20;97137.00;;;;10308404;28;20220;-72
2023/11/02 18:20:51;;;;;;;4.03;0.80;;;;;10.10;97138.00;;;;10314359;28;20929;-72
2023/11/02 18:25:52;;;;;;;3.73;1.00;;;;;9.80;97150.00;;;;10298983;28;20882;-72
2023/11/02 18:30:53;;;;;;;1.63;0.80;;;;;9.80;97161.00;;;;10303319;28;20223;-72
2023/11/02 18:35:54;;;;;;;2.57;0.80;;;;;9.80;97152.00;;;;10319210;28;20232;-74
2023/11/02 18:40:55;;;;;;;2.70;0.90;;;;;9.80;97164.00;;;;10322924;28;20228;-74
2023/11/02 18:45:56;;;;;;;5.93;1.00;;;;;9.80;97161.00;;;;10320283;28;20315;-74
2023/11/02 18:50:58;;;;;;;2.60;0.90;;;;;9.60;97178.00;;;;10306981;28;20755;-74
2023/11/02 18:55:59;;;;;;;1.10;0.70;;;;;9.60;97182.00;;;;10318640;28;20307;-74
2023/11/02 19:01:01;;;;;;;2.70;0.70;;;;;9.50;97184.00;;;;10322268;28;20259;-74
2023/11/02 19:06:02;;;;;;;2.60;0.70;;;;;9.40;97190.00;;;;10308929;28;20652;-74
2023/11/02 19:11:06;;;;;;;1.40;0.80;;;;;9.20;97199.00;;;;10300710;28;20307;-75
2023/11/02 19:16:08;;;;;;;2.67;0.70;;;;;8.90;97199.00;;;;10319988;28;20216;-75
2023/11/02 19:21:09;;;;;;;2.83;0.93;;;;;8.80;97208.00;;;;10313004;28;20222;-77
2023/11/02 19:26:15;;;;;;;2.47;0.90;;;;;8.60;97198.00;;;;10318456;28;20223;-74
2023/11/02 19:31:17;;;;;;;1.17;0.60;;;;;8.50;97223.00;;;;10307647;28;20274;-75
2023/11/02 19:36:18;;;;;;;3.80;0.70;;;;;8.40;97209.00;;;;10308384;28;20216;-74
2023/11/02 19:41:19;;;;;;;2.93;0.70;;;;;8.30;97228.00;;;;10312818;28;20223;-73
2023/11/02 19:46:20;;;;;;;5.10;1.10;;;;;8.10;97233.00;;;;10303342;28;21094;-71
2023/11/02 19:51:21;;;;;;;0.90;0.70;;;;;8.00;97224.00;;;;10301244;28;20222;-69
2023/11/02 19:56:22;;;;;;;2.83;0.80;;;;;7.90;97228.00;;;;10310836;28;20330;-70
2023/11/02 20:01:25;;;;;;;0.77;0.70;;;;;7.90;97235.00;;;;10310322;28;20220;-70
2023/11/02 20:06:26;;;;;;;2.07;0.73;;;;;7.80;97229.00;;;;10310105;28;20264;-69
2023/11/02 20:11:27;;;;;;;2.07;0.83;;;;;7.80;97239.00;;;;10294156;28;20263;-69
2023/11/02 20:16:28;;;;;;;4.07;0.83;;;;;7.70;97237.00;;;;10327563;28;20280;-70
2023/11/02 20:21:31;;;;;;;1.80;0.60;;;;;7.70;97240.00;;;;10313946;28;20231;-70
2023/11/02 20:26:33;;;;;;;2.87;0.93;;;;;7.70;97261.00;;;;10312740;28;20231;-70
2023/11/02 20:31:34;;;;;;;2.83;0.80;;;;;7.70;97260.00;;;;10319497;28;20326;-69
2023/11/02 20:36:35;;;;;;;4.00;0.90;;;;;7.70;97268.00;;;;10329392;28;20289;-70
2023/11/02 20:41:36;;;;;;;1.00;0.50;;;;;7.70;97263.00;;;;10313762;28;20243;-69
2023/11/02 20:46:40;;;;;;;0.97;0.60;;;;;7.70;97259.00;;;;10319265;28;20299;-71
2023/11/02 20:51:42;;;;;;;1.23;0.70;;;;;7.70;97268.00;;;;10315841;28;20219;-69
2023/11/02 20:56:45;;;;;;;3.67;0.80;;;;;7.70;97291.00;;;;10315896;28;20359;-71
2023/11/02 21:01:46;;;;;;;2.03;0.60;;;;;7.70;97277.00;;;;10317570;28;20252;-71
2023/11/02 21:06:49;;;;;;;0.47;0.40;;;;;7.80;97282.00;;;;10312548;28;20216;-71
2023/11/02 21:12:01;;;;;;;2.53;0.67;;;;;7.90;97282.00;;;;10324784;28;20283;-70
2023/11/02 21:17:03;;;;;;;2.50;0.80;;;;;8.00;97288.00;;;;10308804;28;20231;-71
2023/11/02 21:22:04;;;;;;;2.43;1.47;;;;;8.10;97308.00;;;;10310776;28;20239;-70
2023/11/02 21:27:05;;;;;;;2.67;0.80;;;;;8.20;97309.00;;;;10313622;28;20234;-70
2023/11/02 21:32:07;;;;;;;0.70;0.50;;;;;8.20;97304.00;;;;10317034;28;20235;-70
2023/11/02 21:37:08;;;;;;;2.57;0.60;;;;;8.30;97316.00;;;;10306936;28;20212;-70
2023/11/02 21:42:09;;;;;;;1.13;0.50;;;;;8.30;97315.00;;;;10309405;28;20230;-69
2023/11/02 21:47:12;;;;;;;1.60;0.40;;;;;8.30;97315.00;;;;10333279;28;20231;-71
2023/11/02 21:52:14;;;;;;;0.40;0.40;;;;;8.30;97318.00;;;;10327536;28;20243;-70
2023/11/02 21:57:15;;;;;;;2.10;0.70;;;;;8.20;97326.00;;;;10308916;28;20227;-69
2023/11/02 22:02:16;;;;;;;2.20;0.60;;;;;8.20;97317.00;;;;10311740;28;20733;-72
2023/11/02 22:07:17;;;;;;;3.77;0.97;;;;;8.20;97326.00;;;;10301119;28;20901;-71
2023/11/02 22:12:19;;;;;;;1.73;0.70;;;;;8.20;97336.00;;;;10318300;28;21090;-71
2023/11/02 22:17:20;;;;;;;0.40;0.33;;;;;8.20;97323.00;;;;10308130;28;20228;-72
2023/11/02 22:22:21;;;;;;;2.53;0.50;;;;;8.20;97319.00;;;;10300162;28;20224;-71
2023/11/02 22:27:22;;;;;;;0.60;0.60;;;;;8.20;97339.00;;;;10310959;28;20576;-71
2023/11/02 22:32:24;;;;;;;1.17;0.50;;;;;8.20;97333.00;;;;10304860;28;20227;-71
2023/11/02 22:37:28;;;;;;;2.17;0.53;;;;;8.30;97355.00;;;;10307358;28;20228;-71
2023/11/02 22:42:29;;;;;;;1.50;0.67;;;;;8.30;97354.00;;;;10306753;28;20261;-71
2023/11/02 22:47:31;;;;;;;1.70;0.40;;;;;8.30;97353.00;;;;10311496;28;20234;-71
2023/11/02 22:52:32;;;;;;;1.50;0.37;;;;;8.30;97361.00;;;;10293571;28;20226;-71
2023/11/02 22:57:34;;;;;;;1.20;0.50;;;;;8.30;97370.00;;;;10293631;28;20895;-71
2023/11/02 23:02:35;;;;;;;1.00;0.60;;;;;8.30;97362.00;;;;10306924;28;20281;-70
2023/11/02 23:07:37;;;;;;;0.63;0.40;;;;;8.30;97371.00;;;;10308156;28;20237;-72
2023/11/02 23:12:38;;;;;;;1.50;0.67;;;;;8.30;97364.00;;;;10311112;28;20294;-71
2023/11/02 23:17:45;;;;;;;0.60;0.60;;;;;8.30;97386.00;;;;10279999;28;20259;-72
2023/11/02 23:22:46;;;;;;;1.53;0.70;;;;;8.30;97395.00;;;;10311670;28;20220;-71
2023/11/02 23:27:48;;;;;;;2.93;0.67;;;;;8.20;97386.00;;;;10309844;28;20240;-71
2023/11/02 23:32:49;;;;;;;0.60;0.30;;;;;8.10;97379.00;;;;10309008;28;20224;-72
2023/11/02 23:37:51;;;;;;;3.77;0.60;;;;;8.20;97389.00;;;;10316293;28;20228;-72
2023/11/02 23:42:53;;;;;;;0.40;0.40;;;;;8.20;97394.00;;;;10313027;28;20227;-72
2023/11/02 23:47:55;;;;;;;0.47;0.47;;;;;8.20;97406.00;;;;10311661;28;20242;-71
2023/11/02 23:52:56;;;;;;;3.37;0.60;;;;;8.20;97409.00;;;;10317635;28;20227;-71
2023/11/02 23:57:57;;;;;;;1.70;0.40;;;;;8.20;97405.00;;;;10318249;28;20231;-71
